Time;durP1;ratioP1;P1;durP2;ratioP2;P2;SDS_P1;SDS_P2;PMS_P1;PMS_P2;Temp;Humidity;BMP_temperature;BMP_pressure;BME280_temperature;BME280_humidity;BME280_pressure;Samples;Min_cycle;Max_cycle;Signal;HPM_P1;HPM_P2
2022/11/18 10:29:19;;;;;;;2.47;2.10;;;;;;;9.43;100.00;97487.56;5172456;27;20547;-81
2022/11/18 10:31:55;;;;;;;1.90;1.80;;;;;;;9.88;100.00;97495.44;5153304;27;39753;-83
2022/11/18 10:34:22;;;;;;;1.70;1.60;;;;;;;10.24;100.00;97484.50;5153771;27;40500;-81
2022/11/18 10:37:00;;;;;;;1.87;1.47;;;;;;;10.58;100.00;97486.97;5171736;27;44247;-84
2022/11/18 10:39:28;;;;;;;1.90;1.50;;;;;;;10.86;100.00;97485.47;5153561;27;41070;-81
2022/11/18 10:42:00;;;;;;;1.93;1.67;;;;;;;11.07;100.00;97500.34;5170782;27;39954;-81
2022/11/18 10:44:35;;;;;;;1.67;1.57;;;;;;;11.28;100.00;97494.16;5135963;27;40837;-80
2022/11/18 10:47:26;;;;;;;3.60;1.73;;;;;;;11.54;100.00;97500.69;5153136;27;42875;-79
2022/11/18 10:49:56;;;;;;;2.33;1.43;;;;;;;11.76;100.00;97500.47;5152849;27;43680;-79
2022/11/18 10:52:24;;;;;;;1.50;1.40;;;;;;;11.96;99.73;97503.19;5135559;27;39956;-79
2022/11/18 10:55:21;;;;;;;1.00;1.00;;;;;;;12.19;98.35;97494.84;5171577;27;42677;-78
2022/11/18 10:57:53;;;;;;;1.70;1.30;;;;;;;12.38;96.74;97485.19;5135620;27;41941;-79
2022/11/18 11:00:50;;;;;;;1.23;1.13;;;;;;;12.79;93.17;97503.44;5153090;27;41528;-79
2022/11/18 11:03:25;;;;;;;1.73;1.03;;;;;;;13.02;91.25;97501.28;5152913;27;39558;-79
2022/11/18 11:06:28;;;;;;;1.43;0.90;;;;;;;13.41;91.17;97498.53;5152657;27;44156;-78
2022/11/18 11:08:59;;;;;;;2.33;0.90;;;;;;;13.66;88.21;97503.19;5171173;27;42571;-79
2022/11/18 11:11:29;;;;;;;1.23;0.80;;;;;;;13.73;87.74;97506.91;5168163;27;42133;-79
2022/11/18 11:14:20;;;;;;;1.67;0.93;;;;;;;13.78;84.37;97506.47;5135481;27;39203;-79
2022/11/18 11:16:56;;;;;;;0.60;0.60;;;;;;;13.78;83.02;97512.63;5168791;27;41723;-78
2022/11/18 11:19:31;;;;;;;0.90;0.90;;;;;;;13.78;82.19;97507.31;5152753;27;42790;-79
2022/11/18 11:21:58;;;;;;;2.03;0.70;;;;;;;13.80;80.95;97520.47;5135321;27;41205;-78
2022/11/18 11:24:27;;;;;;;0.80;0.80;;;;;;;13.78;81.28;97517.94;5171157;27;39985;-78
2022/11/18 11:27:06;;;;;;;1.80;0.90;;;;;;;13.74;81.43;97521.03;5170404;27;41695;-79
2022/11/18 11:30:02;;;;;;;0.87;0.87;;;;;;;13.64;81.43;97521.94;5152685;27;43018;-79
2022/11/18 11:32:43;;;;;;;0.70;0.70;;;;;;;13.45;81.27;97515.88;5150035;27;41936;-78
2022/11/18 11:35:17;;;;;;;0.90;0.90;;;;;;;13.38;82.34;97525.41;5152178;27;39113;-78
2022/11/18 11:37:52;;;;;;;1.00;0.90;;;;;;;12.97;81.49;97486.78;5151750;27;41842;-78
2022/11/18 11:40:29;;;;;;;1.17;1.07;;;;;;;13.11;82.49;97524.34;5122461;27;42572;-78
2022/11/18 11:43:12;;;;;;;1.70;0.90;;;;;;;13.03;83.21;97510.09;5136434;27;43081;-78
2022/11/18 11:45:47;;;;;;;1.60;0.97;;;;;;;13.09;82.46;97521.00;5121350;27;39320;-79
2022/11/18 11:48:40;;;;;;;0.80;0.73;;;;;;;13.28;82.42;97528.94;5153976;27;41704;-78
2022/11/18 11:51:16;;;;;;;0.87;0.70;;;;;;;13.66;81.70;97535.94;5137960;27;42473;-78
2022/11/18 11:54:04;;;;;;;0.70;0.70;;;;;;;14.61;79.98;97522.16;5156368;27;42925;-78
2022/11/18 11:56:35;;;;;;;0.80;0.80;;;;;;;15.11;76.98;97529.53;5120809;27;39964;-78
2022/11/18 11:59:18;;;;;;;0.67;0.67;;;;;;;15.08;74.90;97540.53;5156559;27;42941;-79
2022/11/18 12:02:00;;;;;;;0.77;0.50;;;;;;;14.97;73.83;97554.06;5137811;27;42818;-79
2022/11/18 12:04:38;;;;;;;2.00;0.80;;;;;;;14.74;73.23;97551.06;5137900;27;42151;-78
2022/11/18 12:07:11;;;;;;;0.70;0.60;;;;;;;14.44;73.13;97557.63;5138469;27;39002;-79
2022/11/18 12:10:02;;;;;;;0.70;0.70;;;;;;;14.29;72.80;97553.78;5138253;27;41470;-78
2022/11/18 12:12:37;;;;;;;0.47;0.47;;;;;;;14.20;73.43;97550.22;5120691;27;41959;-79
2022/11/18 12:15:16;;;;;;;1.23;0.80;;;;;;;14.03;74.14;97538.53;5137982;27;41110;-78
2022/11/18 12:17:53;;;;;;;0.60;0.60;;;;;;;14.03;74.76;97545.69;5136234;27;39840;-79
2022/11/18 12:20:42;;;;;;;0.70;0.70;;;;;;;13.95;74.56;97551.75;5152658;27;43206;-78
2022/11/18 12:23:15;;;;;;;1.03;0.80;;;;;;;13.88;74.44;97550.66;5136227;27;42595;-78
2022/11/18 12:25:58;;;;;;;0.73;0.73;;;;;;;13.83;75.05;97554.78;5137702;27;41962;-78
2022/11/18 12:28:29;;;;;;;0.67;0.67;;;;;;;13.64;75.28;97540.56;5136780;27;39022;-78
2022/11/18 12:31:27;;;;;;;0.73;0.73;;;;;;;13.59;75.72;97540.19;5136957;27;40558;-78
2022/11/18 12:33:57;;;;;;;1.13;1.03;;;;;;;13.45;76.54;97532.69;5136893;27;41720;-78
2022/11/18 12:36:27;;;;;;;0.63;0.63;;;;;;;13.48;76.87;97544.81;5120096;27;40947;-79
2022/11/18 12:38:56;;;;;;;0.90;0.70;;;;;;;13.42;76.92;97553.41;5136851;27;39099;-79
2022/11/18 12:44:38;;;;;;;0.70;0.70;;;;;;;13.12;76.43;97563.22;5152674;27;42942;-79
2022/11/18 12:47:06;;;;;;;0.87;0.70;;;;;;;12.93;77.25;97534.06;5136988;27;40910;-78
2022/11/18 12:50:07;;;;;;;0.97;0.87;;;;;;;13.02;77.98;97562.41;5137730;27;39870;-80
2022/11/18 12:52:55;;;;;;;1.10;0.70;;;;;;;12.99;78.13;97568.00;5107607;27;40608;-77
2022/11/18 12:55:32;;;;;;;0.80;0.80;;;;;;;12.97;78.84;97559.38;5137123;27;43745;-78
2022/11/18 12:58:00;;;;;;;1.20;1.10;;;;;;;12.96;78.72;97565.66;5136788;27;41562;-79
2022/11/18 13:00:31;;;;;;;0.87;0.80;;;;;;;12.91;78.83;97559.91;5119901;27;39888;-77
2022/11/18 13:03:01;;;;;;;1.10;1.00;;;;;;;12.90;78.68;97558.25;5152820;27;41503;-78
2022/11/18 13:05:31;;;;;;;0.87;0.80;;;;;;;12.89;78.89;97562.72;5136823;27;43529;-78
2022/11/18 13:08:13;;;;;;;1.13;0.83;;;;;;;12.85;79.28;97560.50;5136504;27;41334;-78
2022/11/18 13:10:46;;;;;;;1.30;1.20;;;;;;;12.80;79.14;97563.56;5137110;27;38840;-79
2022/11/18 13:13:23;;;;;;;1.60;1.40;;;;;;;12.74;79.08;97553.50;5137105;27;40499;-79
2022/11/18 13:18:48;;;;;;;0.90;0.90;;;;;;;12.70;79.13;97552.13;5119622;27;41890;-79
2022/11/18 13:24:12;;;;;;;1.90;1.20;;;;;;;12.76;79.68;97566.63;5119530;27;40702;-79
2022/11/18 13:26:41;;;;;;;2.23;1.10;;;;;;;12.76;79.61;97562.16;5137009;27;41594;-79
2022/11/18 13:29:22;;;;;;;0.97;0.80;;;;;;;12.89;79.33;97567.19;5136545;27;41289;-79
2022/11/18 13:31:59;;;;;;;1.43;1.10;;;;;;;12.98;79.39;97571.69;5119202;27;40031;-79
2022/11/18 13:34:29;;;;;;;1.00;0.80;;;;;;;13.11;79.31;97558.91;5119328;27;40643;-79
2022/11/18 13:37:00;;;;;;;1.27;1.00;;;;;;;13.23;78.76;97560.44;5135922;27;44294;-79
2022/11/18 13:39:31;;;;;;;1.13;1.03;;;;;;;13.33;78.04;97559.59;5136448;27;41200;-78
2022/11/18 13:42:01;;;;;;;1.17;1.03;;;;;;;13.54;77.82;97573.50;5133485;27;39781;-78
2022/11/18 13:44:31;;;;;;;1.27;1.17;;;;;;;13.70;77.75;97573.72;5155153;27;41483;-81
2022/11/18 13:47:06;;;;;;;1.20;1.10;;;;;;;13.81;77.24;97578.88;5135902;27;43097;-79
2022/11/18 13:49:44;;;;;;;1.00;1.00;;;;;;;13.90;77.03;97574.47;5136347;27;40991;-79
2022/11/18 13:52:14;;;;;;;2.30;1.30;;;;;;;13.77;76.63;97542.88;5152171;27;39639;-79
2022/11/18 13:54:43;;;;;;;1.80;1.00;;;;;;;13.97;75.99;97560.41;5136248;27;40709;-79
2022/11/18 13:57:18;;;;;;;2.03;1.10;;;;;;;14.15;76.07;97578.25;5136038;27;42865;-78
2022/11/18 13:59:46;;;;;;;1.00;0.90;;;;;;;13.79;75.52;97529.44;5119279;27;41329;-80
2022/11/18 14:02:15;;;;;;;1.70;0.90;;;;;;;14.07;74.85;97589.66;5135845;27;38925;-78
2022/11/18 14:04:52;;;;;;;1.57;0.93;;;;;;;13.95;75.70;97573.06;5135705;27;40651;-79
2022/11/18 14:07:30;;;;;;;1.83;1.10;;;;;;;14.11;75.34;97591.00;5150850;27;42809;-79
2022/11/18 14:10:01;;;;;;;1.27;1.10;;;;;;;14.19;75.41;97584.97;5118879;27;42356;-79
2022/11/18 14:12:31;;;;;;;2.50;1.27;;;;;;;14.28;74.41;97594.72;5151063;27;40705;-79
2022/11/18 14:15:20;;;;;;;1.73;1.00;;;;;;;14.21;74.39;97578.50;5118655;27;41968;-79
2022/11/18 14:17:54;;;;;;;3.73;1.03;;;;;;;13.98;73.66;97588.69;5135255;27;41830;-78
2022/11/18 14:20:24;;;;;;;2.03;1.10;;;;;;;13.83;74.67;97584.88;5151008;27;42457;-79
2022/11/18 14:22:54;;;;;;;1.40;1.30;;;;;;;13.75;73.92;97597.22;5135177;27;38523;-79
2022/11/18 14:25:28;;;;;;;3.40;0.90;;;;;;;13.66;74.51;97599.78;5154501;27;41559;-79
2022/11/18 14:27:56;;;;;;;2.30;1.50;;;;;;;13.59;74.35;97592.53;5151091;27;42790;-79
2022/11/18 14:30:27;;;;;;;3.87;1.20;;;;;;;13.51;74.37;97589.75;5153881;27;43116;-79
2022/11/18 14:33:21;;;;;;;1.60;1.33;;;;;;;13.50;74.15;97593.38;5135840;27;39156;-80
2022/11/18 14:35:52;;;;;;;3.67;1.43;;;;;;;13.34;74.04;97598.50;5108481;27;41885;-80
2022/11/18 14:38:22;;;;;;;1.20;1.10;;;;;;;13.07;74.29;97602.69;5134428;27;42683;-80
2022/11/18 14:40:58;;;;;;;1.73;1.47;;;;;;;12.93;75.13;97601.31;5135152;27;42174;-79
2022/11/18 14:43:26;;;;;;;2.40;1.60;;;;;;;12.76;75.38;97617.13;5151829;27;39947;-79
2022/11/18 14:45:59;;;;;;;1.50;1.40;;;;;;;12.61;76.13;97610.56;5117978;27;41234;-79
2022/11/18 14:48:29;;;;;;;2.03;1.70;;;;;;;12.42;76.62;97596.28;5135362;27;41856;-79
2022/11/18 14:50:56;;;;;;;1.60;1.50;;;;;;;12.43;76.95;97611.22;5135049;27;42840;-79
2022/11/18 14:53:25;;;;;;;3.13;1.53;;;;;;;12.38;77.09;97615.25;5154056;27;39831;-79
2022/11/18 14:55:56;;;;;;;1.57;1.47;;;;;;;12.28;77.21;97598.47;5135199;27;40912;-80
2022/11/18 14:58:25;;;;;;;2.70;1.63;;;;;;;12.30;77.80;97617.78;5134835;27;41648;-80
2022/11/18 15:00:53;;;;;;;1.77;1.60;;;;;;;12.21;78.09;97614.13;5131790;27;41145;-80
2022/11/18 15:03:20;;;;;;;2.00;1.80;;;;;;;12.15;78.22;97615.50;5117118;27;39094;-80
2022/11/18 15:05:48;;;;;;;2.27;1.97;;;;;;;12.07;78.39;97622.47;5132558;27;42918;-80
2022/11/18 15:08:16;;;;;;;2.90;1.77;;;;;;;11.81;79.21;97591.09;5133008;27;43103;-80
2022/11/18 15:10:43;;;;;;;3.10;1.80;;;;;;;11.65;79.37;97564.22;5150870;27;41938;-80
2022/11/18 15:13:11;;;;;;;2.30;1.63;;;;;;;11.94;79.32;97628.00;5148165;27;39862;-80
2022/11/18 15:15:40;;;;;;;4.27;2.17;;;;;;;11.85;79.41;97624.34;5154059;27;42660;-80
2022/11/18 15:18:09;;;;;;;2.73;2.00;;;;;;;11.80;80.02;97626.56;5155406;27;42740;-80
2022/11/18 15:20:36;;;;;;;2.17;2.00;;;;;;;11.80;80.15;97626.56;5119100;27;42797;-81
2022/11/18 15:23:04;;;;;;;3.30;2.10;;;;;;;11.77;80.53;97621.50;5136479;27;39975;-79
2022/11/18 15:25:32;;;;;;;3.67;2.10;;;;;;;11.78;80.37;97635.63;5151013;27;42745;-79
2022/11/18 15:27:59;;;;;;;3.50;2.40;;;;;;;11.72;80.99;97631.66;5152708;27;43823;-80
2022/11/18 15:30:27;;;;;;;2.80;2.20;;;;;;;11.56;81.15;97618.03;5154499;27;43205;-79
2022/11/18 15:32:56;;;;;;;2.20;2.00;;;;;;;11.57;81.18;97635.63;5155466;27;39641;-79
2022/11/18 15:35:24;;;;;;;2.80;2.03;;;;;;;11.54;81.78;97638.53;5155001;27;42217;-79
2022/11/18 15:37:52;;;;;;;2.63;2.20;;;;;;;11.53;81.56;97639.50;5136263;27;42810;-78
2022/11/18 15:40:19;;;;;;;3.73;2.30;;;;;;;11.51;82.36;97636.97;5136661;27;42376;-80
2022/11/18 15:42:47;;;;;;;4.33;2.00;;;;;;;11.48;82.48;97644.38;5136552;27;40086;-79
2022/11/18 15:45:14;;;;;;;2.37;2.23;;;;;;;11.51;82.33;97649.41;5154343;27;41720;-80
2022/11/18 15:47:42;;;;;;;2.70;2.50;;;;;;;11.47;82.55;97653.31;5136572;27;42929;-80
2022/11/18 15:50:12;;;;;;;2.80;2.27;;;;;;;11.28;83.00;97642.56;5133025;27;42003;-83
2022/11/18 15:52:40;;;;;;;2.10;1.80;;;;;;;11.27;83.41;97648.84;5117766;27;38893;-81
2022/11/18 15:55:08;;;;;;;2.60;2.20;;;;;;;11.24;83.50;97654.41;5136443;27;42640;-80
2022/11/18 15:57:36;;;;;;;3.00;1.90;;;;;;;11.24;84.04;97665.03;5130200;27;42119;-79
2022/11/18 16:00:05;;;;;;;2.17;1.93;;;;;;;11.08;84.29;97644.25;5135546;27;42352;-80
2022/11/18 16:02:39;;;;;;;2.53;1.97;;;;;;;11.13;84.29;97665.88;5148983;27;39658;-79
2022/11/18 16:05:08;;;;;;;3.40;1.60;;;;;;;10.95;84.70;97647.09;5136419;27;42743;-79
2022/11/18 16:14:13;;;;;;;1.47;1.23;;;;;;;10.84;84.91;97663.03;5069236;28;39537;-80
2022/11/18 16:16:42;;;;;;;1.37;1.10;;;;;;;10.57;85.08;97633.53;5071329;28;40762;-77
2022/11/18 16:19:11;;;;;;;2.60;1.30;;;;;;;10.82;85.25;97675.56;5086893;28;44152;-78
2022/11/18 16:21:41;;;;;;;1.97;1.20;;;;;;;10.78;84.91;97669.66;5090602;28;41695;-78
2022/11/18 16:24:11;;;;;;;1.77;1.33;;;;;;;10.37;84.80;97612.19;5090582;28;39062;-80
2022/11/18 16:26:40;;;;;;;1.40;1.20;;;;;;;10.42;84.99;97636.44;5073456;28;43924;-77
2022/11/18 16:29:10;;;;;;;1.50;1.40;;;;;;;10.49;84.90;97663.28;5089364;28;42009;-80
2022/11/18 16:31:39;;;;;;;3.53;1.40;;;;;;;10.53;85.03;97685.03;5073358;28;41075;-78
2022/11/18 16:34:08;;;;;;;2.17;1.40;;;;;;;10.50;85.20;97694.06;5090720;28;39919;-78
2022/11/18 16:36:37;;;;;;;2.70;1.60;;;;;;;10.51;85.39;97693.09;5073206;28;40630;-79
2022/11/18 16:39:06;;;;;;;2.30;1.40;;;;;;;10.53;85.19;97698.25;5073279;28;41837;-78
2022/11/18 16:41:34;;;;;;;1.60;1.50;;;;;;;10.56;85.08;97705.97;5073102;28;42943;-78
2022/11/18 16:44:06;;;;;;;1.60;1.50;;;;;;;10.58;85.03;97709.34;5088802;28;39790;-78
2022/11/18 16:46:35;;;;;;;2.33;1.50;;;;;;;10.58;85.62;97712.81;5117770;27;40489;-78
2022/11/18 16:49:04;;;;;;;2.03;1.60;;;;;;;10.46;85.41;97694.44;5134134;27;43097;-78
2022/11/18 16:51:33;;;;;;;2.10;1.43;;;;;;;10.56;85.85;97711.25;5118187;27;42265;-79
2022/11/18 16:54:02;;;;;;;2.10;1.97;;;;;;;10.53;85.89;97711.50;5112184;27;40427;-79
2022/11/18 16:56:32;;;;;;;2.30;1.43;;;;;;;10.52;85.67;97709.81;5134748;27;42618;-79
2022/11/18 16:59:02;;;;;;;2.13;1.30;;;;;;;10.47;86.01;97706.72;5135828;27;42150;-78
2022/11/18 17:01:31;;;;;;;1.50;1.40;;;;;;;10.47;86.03;97722.59;5118492;27;42234;-79
2022/11/18 17:04:00;;;;;;;2.60;1.60;;;;;;;10.46;86.14;97718.25;5154208;27;39905;-80
2022/11/18 17:06:28;;;;;;;1.87;1.77;;;;;;;10.39;85.95;97716.09;5134512;27;41337;-80
2022/11/18 17:08:56;;;;;;;2.40;2.20;;;;;;;10.31;86.32;97705.28;5154176;27;42620;-80
2022/11/18 17:11:24;;;;;;;2.53;1.90;;;;;;;10.47;85.99;97727.88;5135725;27;42956;-81
2022/11/18 17:13:52;;;;;;;3.63;2.20;;;;;;;10.46;86.03;97734.97;5134675;27;38928;-78
2022/11/18 17:16:21;;;;;;;2.97;1.90;;;;;;;10.36;86.09;97716.34;5135491;27;41008;-79
2022/11/18 17:18:56;;;;;;;1.90;1.80;;;;;;;10.46;86.32;97737.63;5147777;27;42927;-78
2022/11/18 17:21:24;;;;;;;2.70;1.90;;;;;;;10.42;86.40;97737.03;5114195;27;41529;-79
2022/11/18 17:23:52;;;;;;;1.90;1.80;;;;;;;10.40;86.07;97738.09;5153687;27;39923;-80
2022/11/18 17:26:22;;;;;;;3.37;2.57;;;;;;;10.41;86.42;97745.91;5134955;27;40664;-79
2022/11/18 17:28:50;;;;;;;2.20;2.00;;;;;;;10.39;86.57;97747.00;5149231;27;42956;-79
2022/11/18 17:31:19;;;;;;;4.27;2.43;;;;;;;10.31;87.20;97739.69;5133938;27;44763;-78
2022/11/18 17:33:48;;;;;;;2.90;2.20;;;;;;;10.31;87.20;97744.97;5154207;27;39880;-78
2022/11/18 17:36:18;;;;;;;2.07;1.90;;;;;;;10.29;86.95;97746.06;5117608;27;40634;-78
2022/11/18 17:38:47;;;;;;;2.00;1.77;;;;;;;10.25;86.90;97737.53;5135025;27;43151;-78
2022/11/18 17:43:59;;;;;;;2.00;1.77;;;;;;;10.23;87.25;97739.47;5114277;27;39369;-78
2022/11/18 17:46:26;;;;;;;2.37;2.03;;;;;;;10.25;87.27;97740.19;5117461;27;43521;-78
2022/11/18 17:48:54;;;;;;;3.07;2.17;;;;;;;10.24;87.10;97741.16;5134934;27;42744;-79
2022/11/18 17:51:24;;;;;;;1.83;1.43;;;;;;;10.21;87.18;97746.66;5114824;27;43415;-78
2022/11/18 17:53:52;;;;;;;2.00;1.80;;;;;;;10.19;87.13;97739.81;5119930;27;39235;-79
